Time;durP1;ratioP1;P1;durP2;ratioP2;P2;SDS_P1;SDS_P2;PMS_P1;PMS_P2;Temp;Humidity;BMP_temperature;BMP_pressure;BME280_temperature;BME280_humidity;BME280_pressure;Samples;Min_cycle;Max_cycle;Signal;HPM_P1;HPM_P2
2023/03/13 00:01:37;;;;;;;27.80;9.65;;;5.80;99.90;;;;;;5047040;28;20078;-54
2023/03/13 00:04:03;;;;;;;29.67;10.27;;;5.80;99.90;;;;;;5048725;28;20052;-58
2023/03/13 00:06:34;;;;;;;31.88;11.18;;;5.80;99.90;;;;;;5049352;28;20518;-54
2023/03/13 00:09:00;;;;;;;28.25;10.15;;;5.80;99.90;;;;;;5046146;28;20020;-59
2023/03/13 00:11:26;;;;;;;35.55;9.73;;;5.80;99.90;;;;;;5049470;28;20447;-56
2023/03/13 00:14:00;;;;;;;31.33;10.20;;;5.80;99.90;;;;;;5040683;28;20403;-55
2023/03/13 00:16:26;;;;;;;30.48;9.57;;;5.80;99.90;;;;;;5049106;28;20120;-56
2023/03/13 00:18:54;;;;;;;34.15;9.32;;;5.70;99.90;;;;;;5048848;28;20096;-57
2023/03/13 00:21:22;;;;;;;23.98;8.75;;;5.80;99.90;;;;;;5053170;28;20390;-54
2023/03/13 00:23:48;;;;;;;28.65;10.52;;;5.80;99.90;;;;;;5048771;28;20104;-54
2023/03/13 00:26:16;;;;;;;33.53;9.57;;;5.80;99.90;;;;;;5040176;28;20039;-56
2023/03/13 00:28:42;;;;;;;30.48;9.60;;;5.70;99.90;;;;;;5041319;28;20028;-58
2023/03/13 00:31:11;;;;;;;31.95;9.30;;;5.80;99.90;;;;;;5048511;28;20102;-53
2023/03/13 00:33:40;;;;;;;20.88;8.50;;;5.70;99.90;;;;;;5048299;28;20035;-56
2023/03/13 00:36:13;;;;;;;28.25;8.13;;;5.70;99.90;;;;;;5047704;28;20108;-59
2023/03/13 00:38:39;;;;;;;28.73;7.53;;;5.70;99.90;;;;;;5047076;28;20100;-56
2023/03/13 00:41:25;;;;;;;28.80;7.90;;;5.70;99.90;;;;;;5042521;28;20448;-53
2023/03/13 00:43:51;;;;;;;29.73;7.55;;;5.60;99.90;;;;;;5045899;28;20029;-57
2023/03/13 00:46:20;;;;;;;27.77;8.15;;;5.70;99.90;;;;;;5051829;28;20025;-56
2023/03/13 00:48:46;;;;;;;28.48;8.40;;;5.60;99.90;;;;;;5048625;28;20463;-53
2023/03/13 00:51:13;;;;;;;32.47;7.90;;;5.70;99.90;;;;;;5055183;28;20108;-51
2023/03/13 00:53:39;;;;;;;30.38;8.20;;;5.70;99.90;;;;;;5048833;28;20068;-58
2023/03/13 00:56:10;;;;;;;34.92;8.55;;;5.70;99.90;;;;;;5047709;28;20503;-52
2023/03/13 00:58:38;;;;;;;27.85;9.30;;;5.70;99.90;;;;;;5048575;28;20063;-54
2023/03/13 01:01:09;;;;;;;25.25;7.65;;;5.70;99.90;;;;;;5049108;28;20029;-57
2023/03/13 01:03:36;;;;;;;25.00;7.93;;;5.80;99.90;;;;;;5048436;28;20067;-56
2023/03/13 01:06:03;;;;;;;25.45;7.68;;;5.80;99.90;;;;;;5048897;28;20029;-54
2023/03/13 01:08:29;;;;;;;22.27;7.35;;;5.80;99.90;;;;;;5048629;28;20060;-50
2023/03/13 01:11:04;;;;;;;25.67;7.07;;;5.90;99.90;;;;;;5048765;28;20116;-53
2023/03/13 01:13:33;;;;;;;19.15;6.78;;;5.90;99.90;;;;;;5048350;28;20045;-54
2023/03/13 01:16:10;;;;;;;31.60;7.95;;;5.90;99.90;;;;;;5040044;28;20033;-54
2023/03/13 01:18:38;;;;;;;25.58;7.65;;;5.90;99.90;;;;;;5046511;28;20067;-57
2023/03/13 01:21:05;;;;;;;23.42;7.03;;;6.00;99.90;;;;;;5047972;28;20033;-52
2023/03/13 01:23:30;;;;;;;23.70;7.03;;;6.00;99.90;;;;;;5048812;28;20557;-55
2023/03/13 01:25:56;;;;;;;19.77;7.03;;;6.00;99.90;;;;;;5055291;28;20044;-56
2023/03/13 01:28:23;;;;;;;23.95;7.45;;;6.00;99.90;;;;;;5043395;28;20082;-56
2023/03/13 01:30:49;;;;;;;22.73;7.25;;;6.00;99.90;;;;;;5042137;28;20022;-57
2023/03/13 01:33:15;;;;;;;28.75;8.23;;;6.00;99.90;;;;;;5045727;28;20541;-57
2023/03/13 01:35:40;;;;;;;21.90;7.25;;;6.00;99.90;;;;;;5051285;28;20445;-60
2023/03/13 01:38:06;;;;;;;25.52;7.32;;;6.00;99.90;;;;;;5051703;28;20040;-57
2023/03/13 01:40:38;;;;;;;24.02;7.00;;;6.00;99.90;;;;;;5051771;28;20056;-54
2023/03/13 01:43:23;;;;;;;27.83;8.18;;;6.10;99.90;;;;;;5050380;28;20074;-56
2023/03/13 01:46:08;;;;;;;27.60;8.02;;;6.10;99.90;;;;;;5049709;28;20483;-59
2023/03/13 01:48:41;;;;;;;26.55;9.35;;;6.10;99.90;;;;;;5080619;28;20049;-53
2023/03/13 01:51:18;;;;;;;25.23;8.07;;;6.10;99.90;;;;;;5040251;28;20454;-58
2023/03/13 01:53:49;;;;;;;23.17;8.57;;;6.10;99.90;;;;;;5050000;28;20060;-58
2023/03/13 01:56:23;;;;;;;26.60;7.40;;;6.10;99.90;;;;;;5050588;28;20037;-57
2023/03/13 01:58:51;;;;;;;28.52;7.68;;;6.20;99.90;;;;;;5039570;28;20028;-57
2023/03/13 02:01:17;;;;;;;28.75;8.02;;;6.20;99.90;;;;;;5049416;28;20479;-55
2023/03/13 02:03:43;;;;;;;26.27;8.25;;;6.20;99.90;;;;;;5049393;28;20037;-58
2023/03/13 02:06:10;;;;;;;17.35;7.35;;;6.20;99.90;;;;;;5051348;28;20093;-54
2023/03/13 02:08:41;;;;;;;22.42;7.68;;;6.20;99.90;;;;;;5049638;28;20029;-59
2023/03/13 02:11:32;;;;;;;26.73;7.63;;;6.20;99.90;;;;;;5043542;28;20034;-57
2023/03/13 02:13:59;;;;;;;33.00;9.10;;;6.20;99.90;;;;;;5063360;28;20514;-57
2023/03/13 02:16:25;;;;;;;31.17;7.63;;;6.20;99.90;;;;;;5050882;28;20275;-54
2023/03/13 02:18:51;;;;;;;23.17;8.23;;;6.20;99.90;;;;;;5046122;28;20090;-56
2023/03/13 02:21:31;;;;;;;16.88;6.28;;;6.20;99.90;;;;;;5050834;28;20025;-55
2023/03/13 02:24:27;;;;;;;30.85;8.25;;;6.30;99.90;;;;;;5046513;28;20071;-52
2023/03/13 02:26:53;;;;;;;22.27;7.95;;;6.30;99.90;;;;;;5041156;28;20025;-52
2023/03/13 02:29:19;;;;;;;25.73;8.07;;;6.30;99.90;;;;;;5047446;28;20037;-52
2023/03/13 02:31:47;;;;;;;27.50;7.93;;;6.30;99.90;;;;;;5051100;28;20025;-56
2023/03/13 02:34:16;;;;;;;23.30;7.78;;;6.30;99.90;;;;;;5051104;28;20017;-56
2023/03/13 02:36:43;;;;;;;24.67;7.72;;;6.30;99.90;;;;;;5046972;28;20025;-57
2023/03/13 02:39:11;;;;;;;24.02;7.18;;;6.30;99.90;;;;;;5050578;28;20071;-54
2023/03/13 02:41:39;;;;;;;25.00;6.97;;;6.30;99.90;;;;;;5050233;28;20043;-57
2023/03/13 02:44:05;;;;;;;21.08;7.72;;;6.30;99.90;;;;;;5050630;28;20444;-52
2023/03/13 02:46:46;;;;;;;16.70;6.93;;;6.30;99.90;;;;;;5048967;28;20075;-52
2023/03/13 02:49:22;;;;;;;31.13;7.43;;;6.30;99.90;;;;;;5038967;28;20052;-57
2023/03/13 02:51:48;;;;;;;20.70;7.35;;;6.40;99.90;;;;;;5047418;28;20036;-56
2023/03/13 02:54:19;;;;;;;27.05;7.88;;;6.40;99.90;;;;;;5042483;28;20025;-54
2023/03/13 02:56:49;;;;;;;27.85;7.88;;;6.40;99.90;;;;;;5041936;28;20021;-58
2023/03/13 02:59:15;;;;;;;20.25;5.88;;;6.40;99.90;;;;;;5045280;28;20032;-56
2023/03/13 03:01:41;;;;;;;29.75;8.32;;;6.50;99.90;;;;;;5048916;28;20029;-54
2023/03/13 03:04:06;;;;;;;32.78;7.22;;;6.40;99.90;;;;;;5041211;28;20032;-53
2023/03/13 03:06:32;;;;;;;29.73;7.03;;;6.50;99.90;;;;;;5048956;28;20033;-55
2023/03/13 03:08:57;;;;;;;24.45;7.70;;;6.50;99.90;;;;;;5045352;28;20086;-53
2023/03/13 03:11:23;;;;;;;29.35;6.88;;;6.50;99.90;;;;;;5048874;28;20044;-56
2023/03/13 03:13:48;;;;;;;25.65;6.60;;;6.60;99.90;;;;;;5046461;28;20056;-55
2023/03/13 03:16:17;;;;;;;22.25;6.22;;;6.60;99.90;;;;;;5048794;28;20086;-58
2023/03/13 03:18:43;;;;;;;24.08;7.50;;;6.60;99.90;;;;;;5049833;28;20085;-53
2023/03/13 03:21:08;;;;;;;18.60;5.63;;;6.60;99.90;;;;;;5049581;28;20095;-53
2023/03/13 03:23:35;;;;;;;19.95;5.75;;;6.60;99.90;;;;;;5043129;28;20029;-57
2023/03/13 03:26:02;;;;;;;30.42;7.40;;;6.60;99.90;;;;;;5049445;28;20036;-54
2023/03/13 03:28:28;;;;;;;30.15;6.88;;;6.60;99.90;;;;;;5049539;28;20060;-58
2023/03/13 03:30:53;;;;;;;29.40;6.32;;;6.60;99.90;;;;;;5049479;28;20044;-55
2023/03/13 03:33:21;;;;;;;21.05;6.20;;;6.60;99.90;;;;;;5049690;28;20021;-57
2023/03/13 03:35:46;;;;;;;21.88;6.45;;;6.60;99.90;;;;;;5049296;28;20104;-55
2023/03/13 03:38:12;;;;;;;26.65;6.70;;;6.60;99.90;;;;;;5048648;28;20032;-57
2023/03/13 03:40:38;;;;;;;26.70;7.35;;;6.70;99.90;;;;;;5048881;28;20033;-55
2023/03/13 03:43:03;;;;;;;21.88;6.78;;;6.70;99.90;;;;;;5049538;28;20032;-59
2023/03/13 03:45:29;;;;;;;24.20;6.57;;;6.70;99.90;;;;;;5049189;28;20025;-57
2023/03/13 03:47:58;;;;;;;27.35;6.75;;;6.70;99.90;;;;;;5049453;28;20040;-58
2023/03/13 03:50:24;;;;;;;23.45;7.03;;;6.70;99.90;;;;;;5045695;28;20025;-58
2023/03/13 03:52:50;;;;;;;24.75;7.07;;;6.70;99.90;;;;;;5041679;28;20052;-58
2023/03/13 03:55:16;;;;;;;29.67;6.70;;;6.70;99.90;;;;;;5048991;28;20472;-56
2023/03/13 03:57:41;;;;;;;24.92;6.40;;;6.70;99.90;;;;;;5049078;28;20024;-56
2023/03/13 04:00:09;;;;;;;18.45;5.53;;;6.80;99.90;;;;;;5048966;28;20041;-56
2023/03/13 04:02:36;;;;;;;23.08;6.43;;;6.80;99.90;;;;;;5048703;28;20036;-57
2023/03/13 04:05:01;;;;;;;18.45;5.35;;;6.80;99.90;;;;;;5043713;28;20112;-55
2023/03/13 04:07:27;;;;;;;17.73;5.03;;;6.80;99.90;;;;;;5046136;28;20112;-57
2023/03/13 04:09:52;;;;;;;22.05;6.50;;;6.80;99.90;;;;;;5044822;28;20512;-59
2023/03/13 04:12:18;;;;;;;17.40;5.55;;;6.90;99.90;;;;;;5044458;28;20037;-56
2023/03/13 04:14:43;;;;;;;20.58;5.25;;;6.90;99.90;;;;;;5049031;28;20036;-59
2023/03/13 04:17:09;;;;;;;21.25;7.00;;;6.90;99.90;;;;;;5049277;28;20182;-55
2023/03/13 04:19:34;;;;;;;20.58;5.60;;;6.90;99.90;;;;;;5048089;28;20108;-53
2023/03/13 04:22:00;;;;;;;15.27;4.72;;;6.90;99.90;;;;;;5044089;28;20049;-55
2023/03/13 04:24:26;;;;;;;21.40;5.30;;;6.90;99.90;;;;;;5045408;28;20045;-54
2023/03/13 04:26:51;;;;;;;21.77;5.70;;;7.00;99.90;;;;;;5049063;28;20029;-56
2023/03/13 04:29:20;;;;;;;17.40;6.40;;;7.00;99.90;;;;;;5048367;28;20112;-52
2023/03/13 04:31:45;;;;;;;19.60;4.65;;;7.00;99.90;;;;;;5044495;28;20534;-59
2023/03/13 04:34:11;;;;;;;21.33;6.30;;;7.00;99.90;;;;;;5042742;28;20030;-52
2023/03/13 04:36:36;;;;;;;20.45;5.68;;;7.00;99.90;;;;;;5045662;28;20479;-56
2023/03/13 04:39:02;;;;;;;18.40;5.07;;;7.00;99.90;;;;;;5048916;28;20498;-55
2023/03/13 04:41:28;;;;;;;17.02;5.90;;;7.00;99.90;;;;;;5048538;28;20078;-54
2023/03/13 04:43:53;;;;;;;20.60;6.35;;;7.00;99.90;;;;;;5045288;28;20123;-55
2023/03/13 04:46:19;;;;;;;19.70;6.35;;;7.00;99.90;;;;;;5048099;28;20395;-55
2023/03/13 04:48:45;;;;;;;21.45;5.90;;;7.00;99.90;;;;;;5041381;28;20126;-54
2023/03/13 04:51:11;;;;;;;26.02;6.18;;;7.10;99.90;;;;;;5043493;28;20617;-56
2023/03/13 04:53:37;;;;;;;18.60;6.72;;;7.10;99.90;;;;;;5046640;28;20043;-57
2023/03/13 04:56:03;;;;;;;15.88;5.10;;;7.00;99.90;;;;;;5042023;28;20029;-55
2023/03/13 04:58:29;;;;;;;23.80;5.38;;;7.00;99.90;;;;;;5048100;28;20032;-57
2023/03/13 05:00:55;;;;;;;24.52;6.30;;;7.10;99.90;;;;;;5051235;28;20025;-57
2023/03/13 05:03:22;;;;;;;22.27;6.03;;;7.10;99.90;;;;;;5047170;28;20025;-56
2023/03/13 05:05:47;;;;;;;20.70;5.82;;;7.10;99.90;;;;;;5049091;28;20025;-57
2023/03/13 05:08:13;;;;;;;19.30;5.28;;;7.10;99.90;;;;;;5048823;28;20047;-58
2023/03/13 05:10:40;;;;;;;22.92;5.57;;;7.10;99.90;;;;;;5052364;28;20566;-55
2023/03/13 05:13:06;;;;;;;20.80;5.28;;;7.20;99.90;;;;;;5052277;28;20112;-56
2023/03/13 05:15:31;;;;;;;19.70;5.57;;;7.10;99.90;;;;;;5052053;28;20032;-57
2023/03/13 05:17:57;;;;;;;15.90;6.80;;;7.10;99.90;;;;;;5053457;28;20025;-56
2023/03/13 05:20:22;;;;;;;19.70;5.10;;;7.10;99.90;;;;;;5052006;28;20017;-55
2023/03/13 05:22:48;;;;;;;14.00;5.15;;;7.10;99.90;;;;;;5051817;28;20131;-56
2023/03/13 05:25:14;;;;;;;15.63;5.78;;;7.10;99.90;;;;;;5052176;28;20107;-53
2023/03/13 05:27:40;;;;;;;20.33;5.90;;;7.10;99.90;;;;;;5052102;28;20120;-55
2023/03/13 05:30:06;;;;;;;19.52;6.05;;;7.10;99.90;;;;;;5052122;28;20025;-58
2023/03/13 05:32:31;;;;;;;21.15;5.35;;;7.00;99.90;;;;;;5051617;28;20041;-55
2023/03/13 05:34:57;;;;;;;15.38;4.65;;;7.00;99.90;;;;;;5051769;28;20027;-56
2023/03/13 05:37:22;;;;;;;18.63;5.45;;;7.10;99.90;;;;;;5050568;28;20025;-53
2023/03/13 05:39:48;;;;;;;12.50;3.78;;;7.00;99.90;;;;;;5051627;28;20390;-54
2023/03/13 05:42:13;;;;;;;14.45;5.55;;;7.10;99.90;;;;;;5050558;28;20029;-59
2023/03/13 05:44:39;;;;;;;11.80;4.75;;;7.10;99.90;;;;;;5051297;28;20033;-54
2023/03/13 05:47:05;;;;;;;15.05;5.18;;;7.10;99.90;;;;;;5052207;28;20029;-54
2023/03/13 05:49:30;;;;;;;15.98;6.18;;;7.10;99.90;;;;;;5049987;28;20072;-59
2023/03/13 05:51:56;;;;;;;15.60;4.47;;;7.10;99.90;;;;;;5050555;28;20043;-56
2023/03/13 05:54:21;;;;;;;10.52;4.15;;;7.10;99.90;;;;;;5051735;28;20487;-52
2023/03/13 05:56:49;;;;;;;11.57;4.82;;;7.10;99.90;;;;;;5048616;28;20078;-56
2023/03/13 05:59:14;;;;;;;13.05;4.35;;;7.10;99.90;;;;;;5044772;28;20130;-56
2023/03/13 06:01:40;;;;;;;8.77;3.95;;;7.10;99.90;;;;;;5046271;28;20175;-56
2023/03/13 06:04:06;;;;;;;8.38;3.47;;;7.10;99.90;;;;;;5052759;28;20021;-55
2023/03/13 06:06:31;;;;;;;8.68;3.80;;;7.20;99.90;;;;;;5054911;28;20095;-53
2023/03/13 06:08:57;;;;;;;9.95;4.22;;;7.10;99.90;;;;;;5051046;28;20721;-55
2023/03/13 06:11:23;;;;;;;9.25;3.30;;;7.20;99.90;;;;;;5051359;28;20029;-59
2023/03/13 06:13:50;;;;;;;10.82;3.50;;;7.20;99.90;;;;;;5051351;28;20021;-56
2023/03/13 06:16:16;;;;;;;6.85;3.53;;;7.20;99.90;;;;;;5051226;28;20090;-53
2023/03/13 06:18:41;;;;;;;6.93;2.95;;;7.30;99.90;;;;;;5051032;28;20475;-56
2023/03/13 06:21:07;;;;;;;5.75;3.08;;;7.30;99.90;;;;;;5051014;28;20025;-57
2023/03/13 06:23:34;;;;;;;4.72;2.25;;;7.30;99.90;;;;;;5051544;28;20033;-57
2023/03/13 06:26:00;;;;;;;5.70;2.22;;;7.30;99.90;;;;;;5051413;28;20025;-55
2023/03/13 06:28:25;;;;;;;8.18;2.50;;;7.40;99.90;;;;;;5051115;28;20108;-57
2023/03/13 06:30:51;;;;;;;4.72;2.28;;;7.40;99.90;;;;;;5051087;28;20112;-58
2023/03/13 06:33:17;;;;;;;6.85;2.28;;;7.40;99.90;;;;;;5050890;28;20522;-57
2023/03/13 06:35:43;;;;;;;3.75;2.22;;;7.50;99.90;;;;;;5050251;28;20051;-58
2023/03/13 06:38:09;;;;;;;5.50;1.90;;;7.50;99.90;;;;;;5047473;28;20071;-57
2023/03/13 06:40:45;;;;;;;5.65;3.38;;;7.50;99.90;;;;;;5049281;28;20075;-56
2023/03/13 06:43:10;;;;;;;12.77;8.13;;;7.60;99.90;;;;;;5051089;28;20044;-55
2023/03/13 06:45:36;;;;;;;31.45;16.50;;;7.70;99.90;;;;;;5050417;28;20033;-56
2023/03/13 06:48:02;;;;;;;6.80;4.90;;;7.70;99.90;;;;;;5051038;28;20025;-60
2023/03/13 06:50:28;;;;;;;9.23;5.20;;;7.80;99.90;;;;;;5049075;28;20029;-56
2023/03/13 06:52:54;;;;;;;9.38;6.57;;;7.80;99.90;;;;;;5045812;28;20518;-57
2023/03/13 06:55:19;;;;;;;9.05;4.30;;;7.80;99.90;;;;;;5046700;28;20021;-55
2023/03/13 06:57:49;;;;;;;4.68;3.00;;;7.80;99.90;;;;;;5050313;28;20033;-56
2023/03/13 07:00:15;;;;;;;5.28;2.83;;;7.90;99.90;;;;;;5048740;28;20479;-55
2023/03/13 07:02:41;;;;;;;3.40;2.63;;;7.90;99.90;;;;;;5050154;28;20032;-57
2023/03/13 07:05:07;;;;;;;2.83;2.28;;;7.90;99.90;;;;;;5050338;28;20422;-55
2023/03/13 07:07:33;;;;;;;4.32;2.33;;;8.00;99.90;;;;;;5049905;28;20021;-55
2023/03/13 07:09:59;;;;;;;3.83;1.77;;;8.00;99.90;;;;;;5050115;28;20075;-58
2023/03/13 07:12:24;;;;;;;4.68;2.45;;;8.10;99.90;;;;;;5048768;28;20086;-57
2023/03/13 07:14:50;;;;;;;3.53;2.13;;;8.20;99.90;;;;;;5050153;28;20077;-55
2023/03/13 07:17:15;;;;;;;4.55;2.10;;;8.20;99.90;;;;;;5050125;28;20025;-54
2023/03/13 07:19:41;;;;;;;2.85;1.70;;;8.30;99.90;;;;;;5049675;28;20020;-55
2023/03/13 07:22:06;;;;;;;4.05;1.77;;;8.30;99.90;;;;;;5050381;28;20032;-53
2023/03/13 07:24:32;;;;;;;2.83;1.73;;;8.30;99.90;;;;;;5043945;28;20541;-57
2023/03/13 07:26:57;;;;;;;3.28;2.00;;;8.30;99.90;;;;;;5049752;28;20029;-53
2023/03/13 07:29:23;;;;;;;2.95;1.88;;;8.40;99.90;;;;;;5049402;28;20025;-58
2023/03/13 07:31:48;;;;;;;5.43;2.22;;;8.40;99.90;;;;;;5049324;28;20108;-55
2023/03/13 07:34:14;;;;;;;4.68;2.42;;;8.40;99.90;;;;;;5049875;28;20082;-53
2023/03/13 07:36:40;;;;;;;3.95;2.13;;;8.40;99.90;;;;;;5049319;28;20089;-54
2023/03/13 07:39:06;;;;;;;4.82;2.60;;;8.40;99.90;;;;;;5049618;28;20022;-53
2023/03/13 07:41:32;;;;;;;4.45;2.28;;;8.50;99.90;;;;;;5049487;28;20451;-55
2023/03/13 07:43:58;;;;;;;3.50;2.28;;;8.50;99.90;;;;;;5049628;28;20107;-53
2023/03/13 07:46:24;;;;;;;2.92;1.90;;;8.50;99.90;;;;;;5049065;28;20040;-59
2023/03/13 07:48:51;;;;;;;2.60;2.22;;;8.60;99.90;;;;;;5048314;28;20044;-57
2023/03/13 07:51:22;;;;;;;5.43;2.33;;;8.60;99.90;;;;;;5049739;28;20025;-52
2023/03/13 07:53:48;;;;;;;3.55;2.30;;;8.60;99.90;;;;;;5049618;28;20059;-58
2023/03/13 07:56:16;;;;;;;4.38;2.50;;;8.60;99.90;;;;;;5048472;28;20132;-58
2023/03/13 07:58:43;;;;;;;3.38;2.55;;;8.70;99.90;;;;;;5044046;28;20063;-53
2023/03/13 08:01:09;;;;;;;6.07;2.33;;;8.70;99.90;;;;;;5044088;28;20048;-58
2023/03/13 08:03:35;;;;;;;5.30;2.88;;;8.80;99.90;;;;;;5049496;28;20100;-53
2023/03/13 08:06:04;;;;;;;5.15;2.60;;;8.90;99.90;;;;;;5049073;28;20510;-53
2023/03/13 08:08:30;;;;;;;3.95;2.35;;;8.90;99.90;;;;;;5047604;28;20037;-57
2023/03/13 08:11:08;;;;;;;3.08;2.28;;;8.90;99.90;;;;;;5049081;28;20036;-53
2023/03/13 08:13:34;;;;;;;3.17;2.70;;;9.00;99.90;;;;;;5049055;28;20067;-54
2023/03/13 08:16:14;;;;;;;3.60;3.10;;;9.00;99.90;;;;;;5048940;28;20028;-60
2023/03/13 08:18:42;;;;;;;3.60;3.20;;;9.10;99.90;;;;;;5049123;28;20029;-55
2023/03/13 08:21:10;;;;;;;3.40;3.10;;;9.20;99.90;;;;;;5049026;28;20083;-56
2023/03/13 08:23:35;;;;;;;4.65;3.65;;;9.20;99.90;;;;;;5049198;28;20037;-55
2023/03/13 08:26:13;;;;;;;4.40;3.53;;;9.30;99.90;;;;;;5047960;28;20120;-53
2023/03/13 08:28:39;;;;;;;6.93;3.65;;;9.30;99.90;;;;;;5049116;28;20063;-59
2023/03/13 08:31:07;;;;;;;4.75;2.95;;;9.30;99.90;;;;;;5049231;28;20016;-55
2023/03/13 08:33:32;;;;;;;4.53;3.67;;;9.40;99.90;;;;;;5047742;28;20029;-53
2023/03/13 08:35:58;;;;;;;4.78;3.33;;;9.50;99.90;;;;;;5048590;28;20108;-55
2023/03/13 08:38:23;;;;;;;4.75;3.38;;;9.50;99.90;;;;;;5048569;28;20104;-56
2023/03/13 08:40:50;;;;;;;4.72;3.58;;;9.60;99.90;;;;;;5048056;28;20402;-51
2023/03/13 08:43:15;;;;;;;4.65;3.45;;;9.60;99.90;;;;;;5047869;28;20029;-57
2023/03/13 08:45:41;;;;;;;6.28;3.10;;;9.70;99.90;;;;;;5053012;28;20033;-59
2023/03/13 08:48:06;;;;;;;4.13;2.97;;;9.70;99.90;;;;;;5052639;28;20087;-58
2023/03/13 08:50:32;;;;;;;3.25;2.95;;;9.80;99.90;;;;;;5052868;28;20029;-56
2023/03/13 08:52:57;;;;;;;4.72;3.60;;;9.80;99.90;;;;;;5051608;28;20029;-57
2023/03/13 08:55:23;;;;;;;4.70;3.55;;;9.90;99.90;;;;;;5052521;28;20052;-56
2023/03/13 08:57:48;;;;;;;5.63;4.20;;;9.90;99.90;;;;;;5053169;28;20017;-55
2023/03/13 09:00:14;;;;;;;4.70;3.88;;;9.90;99.90;;;;;;5048877;28;20025;-56
2023/03/13 09:02:40;;;;;;;6.40;4.18;;;10.00;99.90;;;;;;5052632;28;20387;-56
2023/03/13 09:05:06;;;;;;;8.30;7.03;;;10.00;99.90;;;;;;5052791;28;20028;-57
2023/03/13 09:07:32;;;;;;;10.75;7.45;;;10.10;99.90;;;;;;5051524;28;20082;-56
2023/03/13 09:09:57;;;;;;;10.32;7.00;;;10.10;99.90;;;;;;5048077;28;20567;-56
2023/03/13 09:12:23;;;;;;;10.32;8.27;;;10.10;99.90;;;;;;5047977;28;20498;-54
2023/03/13 09:14:48;;;;;;;10.68;7.53;;;10.10;99.90;;;;;;5052479;28;20017;-56
2023/03/13 09:17:14;;;;;;;8.57;7.05;;;10.20;99.90;;;;;;5052856;28;20009;-59
2023/03/13 09:19:39;;;;;;;11.00;8.23;;;10.30;99.90;;;;;;5050739;28;20028;-58
2023/03/13 09:22:05;;;;;;;15.75;10.27;;;10.30;99.90;;;;;;5050176;28;20386;-58
2023/03/13 09:24:30;;;;;;;15.85;10.20;;;10.30;99.90;;;;;;5052802;28;20036;-58
2023/03/13 09:26:56;;;;;;;8.35;6.80;;;10.30;99.90;;;;;;5051916;28;20036;-58
2023/03/13 09:29:21;;;;;;;7.53;6.43;;;10.40;99.90;;;;;;5050470;28;20043;-54
2023/03/13 09:31:47;;;;;;;8.63;6.70;;;10.40;99.90;;;;;;5052166;28;20433;-55
2023/03/13 09:34:12;;;;;;;9.18;6.70;;;10.50;99.90;;;;;;5050347;28;20033;-58
2023/03/13 09:36:38;;;;;;;9.07;6.93;;;10.50;99.90;;;;;;5050142;28;20415;-55
2023/03/13 09:39:03;;;;;;;10.10;6.80;;;10.50;99.90;;;;;;5045758;28;20096;-57
2023/03/13 09:41:53;;;;;;;9.57;7.05;;;10.50;99.90;;;;;;5043590;28;20028;-59
2023/03/13 09:44:27;;;;;;;7.88;6.60;;;10.60;99.90;;;;;;5052591;28;20497;-56
2023/03/13 09:46:52;;;;;;;8.30;7.03;;;10.70;99.90;;;;;;5051128;28;20108;-57
2023/03/13 09:49:54;;;;;;;7.15;6.32;;;10.70;99.90;;;;;;5051739;28;20117;-56
2023/03/13 09:52:25;;;;;;;8.50;5.80;;;10.80;99.90;;;;;;5042075;28;20032;-55
2023/03/13 09:55:14;;;;;;;11.18;6.60;;;10.80;99.90;;;;;;5046620;28;20017;-55
2023/03/13 09:57:55;;;;;;;12.07;6.68;;;10.80;99.90;;;;;;5052174;28;20017;-54
2023/03/13 10:00:23;;;;;;;8.95;7.03;;;10.90;99.90;;;;;;5051358;28;20029;-57
2023/03/13 10:02:56;;;;;;;9.60;6.20;;;10.90;99.90;;;;;;5051208;28;20086;-54
2023/03/13 10:05:27;;;;;;;10.60;7.47;;;10.90;99.90;;;;;;5051361;28;20144;-55
2023/03/13 10:08:00;;;;;;;13.27;7.88;;;11.00;99.90;;;;;;5044114;28;20021;-56
2023/03/13 10:10:54;;;;;;;9.68;7.80;;;11.00;99.90;;;;;;5051397;28;20090;-57
2023/03/13 10:13:53;;;;;;;9.20;7.20;;;11.00;99.90;;;;;;5046969;28;20037;-58
2023/03/13 10:16:46;;;;;;;8.52;7.07;;;11.10;99.90;;;;;;5051092;28;20021;-56
2023/03/13 10:19:15;;;;;;;9.80;7.30;;;11.10;99.90;;;;;;5050739;28;20017;-56
2023/03/13 10:21:43;;;;;;;11.73;8.05;;;11.10;99.90;;;;;;5046254;28;20118;-55
2023/03/13 10:24:36;;;;;;;10.60;7.68;;;11.20;99.90;;;;;;5045861;28;20074;-56
2023/03/13 10:27:02;;;;;;;9.65;8.15;;;11.30;99.90;;;;;;5044854;28;20021;-52
2023/03/13 10:29:29;;;;;;;12.95;7.82;;;11.30;99.90;;;;;;5050687;28;20029;-52
2023/03/13 10:31:57;;;;;;;10.60;8.35;;;11.30;99.90;;;;;;5048799;28;20037;-58
2023/03/13 10:34:28;;;;;;;9.60;6.95;;;11.30;99.90;;;;;;5048320;28;20028;-58
2023/03/13 10:36:59;;;;;;;9.13;7.35;;;11.30;99.90;;;;;;5049469;28;20025;-55
2023/03/13 10:39:27;;;;;;;10.77;8.27;;;11.40;99.90;;;;;;5050338;28;20024;-58
2023/03/13 10:42:10;;;;;;;8.23;7.13;;;11.50;99.90;;;;;;5043069;28;20029;-58
2023/03/13 10:44:36;;;;;;;9.43;6.60;;;11.60;99.90;;;;;;5049201;28;20025;-58
2023/03/13 10:47:03;;;;;;;11.93;7.72;;;11.80;99.90;;;;;;5048881;28;20083;-59
2023/03/13 10:49:30;;;;;;;8.85;7.18;;;12.00;99.90;;;;;;5049749;28;20033;-57
2023/03/13 10:52:00;;;;;;;9.93;6.85;;;12.10;99.90;;;;;;5048718;28;20018;-57
2023/03/13 10:54:28;;;;;;;7.80;6.20;;;12.30;99.90;;;;;;5049337;28;20052;-58
2023/03/13 10:57:14;;;;;;;6.88;5.55;;;12.40;99.90;;;;;;5048719;28;20021;-57
2023/03/13 10:59:45;;;;;;;8.45;5.32;;;12.40;99.90;;;;;;5050186;28;20105;-57
2023/03/13 11:02:22;;;;;;;5.07;4.43;;;12.40;99.90;;;;;;5050175;28;20515;-54
2023/03/13 11:04:54;;;;;;;5.47;4.28;;;12.40;99.90;;;;;;5050785;28;20048;-54
2023/03/13 11:07:24;;;;;;;4.15;3.20;;;12.40;99.90;;;;;;5049392;28;20031;-58
2023/03/13 11:10:15;;;;;;;7.07;3.83;;;12.30;99.90;;;;;;5046808;28;20104;-57
2023/03/13 11:12:46;;;;;;;6.95;4.10;;;12.20;99.90;;;;;;5050206;28;20154;-57
2023/03/13 11:15:17;;;;;;;7.18;3.58;;;12.20;99.90;;;;;;5050248;28;20225;-57
2023/03/13 11:17:46;;;;;;;3.42;3.13;;;12.20;99.90;;;;;;5050224;28;20125;-54
2023/03/13 11:20:23;;;;;;;3.20;2.45;;;12.30;99.90;;;;;;5050490;28;20013;-55
2023/03/13 11:23:14;;;;;;;4.10;3.05;;;12.30;99.90;;;;;;5050303;28;20356;-55
2023/03/13 11:26:05;;;;;;;2.70;2.50;;;12.50;99.90;;;;;;5048865;28;20033;-57
2023/03/13 11:28:51;;;;;;;4.47;2.80;;;12.70;99.90;;;;;;5047464;28;20028;-57
2023/03/13 11:31:17;;;;;;;;;;;12.80;99.90;;;;;;5050828;28;20032;-56
2023/03/13 11:33:58;;;;;;;4.70;2.57;;;12.90;99.90;;;;;;5050078;28;19909;-54
2023/03/13 11:36:41;;;;;;;2.85;2.63;;;13.00;99.90;;;;;;5049796;28;20079;-55
2023/03/13 11:39:36;;;;;;;3.88;3.15;;;13.00;99.90;;;;;;5043865;28;20063;-59
2023/03/13 11:42:24;;;;;;;4.25;3.42;;;13.00;99.90;;;;;;5043937;28;20013;-59
2023/03/13 11:45:08;;;;;;;5.38;2.60;;;13.00;99.90;;;;;;5046602;28;20111;-57
2023/03/13 11:47:55;;;;;;;4.13;2.05;;;13.10;99.90;;;;;;5049345;28;20057;-59
2023/03/13 11:50:32;;;;;;;1.98;1.73;;;13.30;99.90;;;;;;5049188;28;20032;-56
2023/03/13 11:53:15;;;;;;;5.65;1.80;;;13.40;99.90;;;;;;5043266;28;20016;-53
2023/03/13 11:55:49;;;;;;;2.92;1.77;;;13.50;99.90;;;;;;5048536;28;20028;-53
2023/03/13 11:58:38;;;;;;;2.22;1.73;;;13.50;99.90;;;;;;5049404;28;20439;-56
2023/03/13 12:01:19;;;;;;;2.75;1.73;;;13.60;99.90;;;;;;5043158;28;20021;-58
2023/03/13 12:03:56;;;;;;;4.82;1.70;;;13.70;99.90;;;;;;5049588;28;20037;-58
2023/03/13 12:06:46;;;;;;;3.35;1.50;;;13.80;99.90;;;;;;5049366;28;20035;-57
2023/03/13 12:09:29;;;;;;;1.88;1.50;;;13.70;99.90;;;;;;5046221;28;20157;-57
2023/03/13 12:12:02;;;;;;;4.60;1.58;;;13.70;99.90;;;;;;5042156;28;20017;-56
2023/03/13 12:14:34;;;;;;;3.55;1.80;;;13.60;99.90;;;;;;5047892;28;20657;-60
2023/03/13 12:17:04;;;;;;;3.33;1.70;;;13.50;99.90;;;;;;5049345;28;20052;-59
2023/03/13 12:19:44;;;;;;;3.78;1.70;;;13.50;99.90;;;;;;5048731;28;20048;-58
2023/03/13 12:22:24;;;;;;;3.58;1.77;;;13.60;99.90;;;;;;5049704;28;20021;-57
2023/03/13 12:25:04;;;;;;;3.63;1.83;;;13.80;99.90;;;;;;5047656;28;20031;-59
2023/03/13 12:27:35;;;;;;;5.50;1.80;;;13.90;99.90;;;;;;5045666;28;20036;-53
2023/03/13 12:30:06;;;;;;;3.88;2.22;;;14.10;99.90;;;;;;5042134;28;20017;-58
2023/03/13 12:32:38;;;;;;;4.43;1.77;;;14.30;99.90;;;;;;5048807;28;20031;-59
2023/03/13 12:35:29;;;;;;;3.95;1.75;;;14.50;99.90;;;;;;5042065;28;20387;-58
2023/03/13 12:38:19;;;;;;;3.22;1.40;;;14.50;99.90;;;;;;5044512;28;20479;-58
2023/03/13 12:40:51;;;;;;;2.78;1.10;;;14.50;99.90;;;;;;5048404;28;20041;-54
2023/03/13 12:43:30;;;;;;;2.75;1.42;;;14.30;99.90;;;;;;5048962;28;20021;-58
2023/03/13 12:45:56;;;;;;;2.58;1.27;;;14.20;99.90;;;;;;5036999;28;20057;-58
2023/03/13 12:48:22;;;;;;;2.13;1.23;;;14.20;99.90;;;;;;5046429;28;20072;-53
2023/03/13 12:51:17;;;;;;;1.95;1.15;;;14.20;99.90;;;;;;5048679;28;20025;-55
2023/03/13 12:54:02;;;;;;;3.00;1.45;;;14.30;99.90;;;;;;5047628;28;20083;-57
2023/03/13 12:56:46;;;;;;;3.17;1.45;;;14.60;99.90;;;;;;5040299;28;20025;-56
2023/03/13 12:59:31;;;;;;;3.17;1.15;;;14.80;99.90;;;;;;5048838;28;20021;-54
2023/03/13 13:01:58;;;;;;;2.75;1.42;;;15.00;99.90;;;;;;5038049;28;20103;-59